Terminal Aerodrome Forecast
Issued by NWS Atlanta, GA

Current Version | Previous Version | Text Only | Print | Product List | Glossary On
Versions: 1 2 3 4 5 6 7 8 9 10 11 12 13 14 15 16 17
939
FTUS42 KFFC 270526
TAFMCN
TAF
KMCN 270526Z 2706/2806 00000KT P6SM SCT250
     FM271200 VRB05KT P6SM SCT250
     FM271700 01008KT P6SM FEW050 SCT250
     FM280000 05005KT P6SM SKC=

USA.gov is the U.S. government's official web portal to all federal, state and local government web resources and services.